Time;durP1;ratioP1;P1;durP2;ratioP2;P2;SDS_P1;SDS_P2;PMS_P1;PMS_P2;Temp;Humidity;BMP_temperature;BMP_pressure;BME280_temperature;BME280_humidity;BME280_pressure;Samples;Min_cycle;Max_cycle;Signal;HPM_P1;HPM_P2
2021/01/29 00:00:51;;;;;;;10.70;6.80;;;6.50;99.90;;;;;;4918505;29;20504;-65
2021/01/29 00:03:18;;;;;;;8.30;6.87;;;6.40;99.90;;;;;;4918722;29;20514;-65
2021/01/29 00:05:51;;;;;;;9.63;7.20;;;6.50;99.90;;;;;;4918750;29;20276;-65
2021/01/29 00:08:19;;;;;;;14.10;8.57;;;6.50;99.90;;;;;;4918450;29;20878;-65
2021/01/29 00:10:44;;;;;;;13.80;9.43;;;6.50;99.90;;;;;;4918027;29;20432;-65
2021/01/29 00:13:12;;;;;;;10.63;7.20;;;6.50;99.90;;;;;;4918587;29;20469;-66
2021/01/29 00:15:38;;;;;;;11.23;8.03;;;6.50;99.90;;;;;;4918212;29;20472;-66
2021/01/29 00:18:04;;;;;;;8.80;6.50;;;6.50;99.90;;;;;;4918222;29;20431;-67
2021/01/29 00:20:30;;;;;;;11.67;8.77;;;6.60;99.90;;;;;;4918054;29;20564;-67
2021/01/29 00:22:56;;;;;;;12.43;8.53;;;6.60;99.90;;;;;;4918165;29;20211;-67
2021/01/29 00:25:25;;;;;;;14.90;9.20;;;6.60;99.90;;;;;;4918350;29;20439;-67
2021/01/29 00:27:51;;;;;;;11.83;8.60;;;6.70;99.90;;;;;;4918059;29;21005;-67
2021/01/29 00:30:19;;;;;;;11.53;8.07;;;6.70;99.90;;;;;;4918286;29;20424;-67
2021/01/29 00:32:45;;;;;;;10.30;8.77;;;6.70;99.90;;;;;;4917878;29;20184;-67
2021/01/29 00:35:12;;;;;;;13.90;9.77;;;6.70;99.90;;;;;;4918117;29;20908;-67
2021/01/29 00:37:37;;;;;;;17.80;9.47;;;6.80;99.90;;;;;;4917874;29;20516;-67
2021/01/29 00:40:04;;;;;;;10.30;7.90;;;6.80;99.90;;;;;;4918054;29;20538;-65
2021/01/29 00:42:29;;;;;;;10.27;6.67;;;6.80;99.90;;;;;;4918241;29;20192;-65
2021/01/29 00:44:55;;;;;;;9.60;6.73;;;6.80;99.90;;;;;;4917701;29;20437;-65
2021/01/29 00:47:20;;;;;;;11.50;8.50;;;6.90;99.90;;;;;;4917988;29;20274;-65
2021/01/29 00:49:46;;;;;;;9.63;7.20;;;6.90;99.90;;;;;;4917971;29;20180;-65
2021/01/29 00:52:11;;;;;;;9.67;7.47;;;7.00;99.90;;;;;;4917674;29;20184;-65
2021/01/29 00:54:37;;;;;;;9.60;7.23;;;6.90;99.90;;;;;;4917533;29;20190;-65
2021/01/29 00:57:03;;;;;;;12.33;9.13;;;6.90;99.90;;;;;;4917847;29;20189;-65
2021/01/29 00:59:28;;;;;;;12.40;7.30;;;6.90;99.90;;;;;;4917856;29;20251;-65
2021/01/29 01:01:54;;;;;;;12.73;8.73;;;6.90;99.90;;;;;;4917089;29;20437;-67
2021/01/29 01:04:20;;;;;;;8.73;7.70;;;7.00;99.90;;;;;;4917753;29;20231;-67
2021/01/29 01:06:45;;;;;;;12.40;8.30;;;7.00;99.90;;;;;;4917681;29;20180;-67
2021/01/29 01:12:33;;;;;;;9.00;6.93;;;7.00;99.90;;;;;;4917446;29;20203;-66
2021/01/29 01:14:59;;;;;;;9.50;7.70;;;7.00;99.90;;;;;;4917562;29;20495;-66
2021/01/29 01:17:25;;;;;;;13.23;7.60;;;7.00;99.90;;;;;;4917381;29;20436;-66
2021/01/29 01:19:51;;;;;;;14.80;9.30;;;7.10;99.90;;;;;;4917227;29;20266;-66
2021/01/29 01:22:16;;;;;;;12.53;9.13;;;7.10;99.90;;;;;;4917464;29;20480;-66
2021/01/29 01:24:42;;;;;;;18.03;9.80;;;7.10;99.90;;;;;;4918112;29;20614;-65
2021/01/29 01:27:09;;;;;;;18.80;10.53;;;7.20;99.90;;;;;;4919204;29;20202;-65
2021/01/29 01:29:35;;;;;;;22.30;12.93;;;7.30;99.90;;;;;;4917548;29;20183;-67
2021/01/29 01:32:01;;;;;;;21.27;11.67;;;7.30;99.90;;;;;;4917535;29;20439;-68
2021/01/29 01:34:26;;;;;;;19.83;12.80;;;7.40;99.90;;;;;;4917458;29;20787;-68
2021/01/29 01:36:52;;;;;;;29.67;12.73;;;7.40;99.90;;;;;;4917204;29;20195;-68
2021/01/29 01:39:18;;;;;;;21.50;12.87;;;7.50;99.90;;;;;;4917219;29;20179;-68
2021/01/29 01:41:44;;;;;;;26.23;13.50;;;7.50;99.90;;;;;;4917390;29;20454;-66
2021/01/29 01:44:36;;;;;;;27.93;14.23;;;7.50;99.90;;;;;;4917366;29;20543;-66
2021/01/29 01:47:20;;;;;;;24.60;14.03;;;7.60;99.90;;;;;;4917350;29;20184;-66
2021/01/29 01:49:48;;;;;;;24.17;13.97;;;7.60;99.90;;;;;;4917416;29;20434;-66
2021/01/29 01:52:37;;;;;;;24.20;13.83;;;7.70;99.90;;;;;;4919374;29;20451;-66
2021/01/29 01:55:08;;;;;;;28.50;15.07;;;7.70;99.90;;;;;;4917068;29;20469;-66
2021/01/29 01:57:37;;;;;;;31.17;15.20;;;7.80;99.90;;;;;;4917445;29;20438;-66
2021/01/29 02:00:07;;;;;;;39.33;14.90;;;7.80;99.90;;;;;;4917365;29;20499;-66
2021/01/29 02:02:36;;;;;;;26.27;12.87;;;7.70;99.90;;;;;;4919232;29;20447;-66
2021/01/29 02:05:08;;;;;;;27.20;14.03;;;7.80;99.90;;;;;;4917003;29;20431;-65
2021/01/29 02:07:42;;;;;;;27.20;14.33;;;7.80;99.90;;;;;;4916911;29;20525;-65
2021/01/29 02:10:08;;;;;;;35.50;16.63;;;7.80;99.90;;;;;;4917194;29;20548;-65
2021/01/29 02:12:33;;;;;;;31.80;15.90;;;7.80;99.90;;;;;;4916834;29;20514;-65
2021/01/29 02:14:59;;;;;;;28.20;14.97;;;7.80;99.90;;;;;;4917037;29;20471;-65
2021/01/29 02:17:36;;;;;;;34.27;17.43;;;7.90;99.90;;;;;;4917119;29;20195;-66
2021/01/29 02:20:29;;;;;;;43.00;18.43;;;7.90;99.90;;;;;;4916639;29;20238;-66
2021/01/29 02:23:11;;;;;;;33.50;17.40;;;8.00;99.90;;;;;;4917002;29;20471;-66
2021/01/29 06:30:39;;;;;;;3.77;2.83;;;9.40;99.90;;;;;;5861350;23;20867;-63
2021/01/29 06:33:15;;;;;;;4.10;2.63;;;9.30;99.90;;;;;;4938773;29;20462;-63
2021/01/29 06:35:47;;;;;;;8.83;2.63;;;9.40;99.90;;;;;;4938784;29;20469;-64
2021/01/29 06:38:35;;;;;;;3.83;2.83;;;9.40;99.90;;;;;;4938471;29;20474;-63
2021/01/29 06:41:22;;;;;;;3.27;2.30;;;9.40;99.90;;;;;;4937464;29;20949;-63
2021/01/29 06:44:41;;;;;;;3.93;2.30;;;9.40;99.90;;;;;;4919462;29;20430;-63
2021/01/29 06:47:27;;;;;;;3.80;2.87;;;9.40;99.90;;;;;;4879899;29;20566;-63
2021/01/29 06:50:18;;;;;;;7.77;2.83;;;9.40;99.90;;;;;;4919570;29;21094;-63
2021/01/29 06:53:21;;;;;;;4.17;3.03;;;9.40;99.90;;;;;;4919590;29;20424;-63
2021/01/29 06:56:02;;;;;;;3.80;3.37;;;9.40;99.90;;;;;;4918035;29;20486;-64
2021/01/29 06:58:51;;;;;;;7.13;3.10;;;9.40;99.90;;;;;;4938228;29;20878;-64
2021/01/29 07:01:43;;;;;;;4.30;3.20;;;9.40;99.90;;;;;;4938488;29;20769;-64
2021/01/29 07:04:32;;;;;;;5.07;4.57;;;9.50;99.90;;;;;;4938396;29;20434;-65
2021/01/29 07:06:57;;;;;;;9.90;7.70;;;9.50;99.90;;;;;;4938145;29;20933;-64
2021/01/29 07:13:15;;;;;;;6.13;4.60;;;9.60;99.90;;;;;;4906943;29;20168;-66
2021/01/29 07:16:31;;;;;;;8.83;4.50;;;9.50;99.90;;;;;;4900514;29;20987;-67
2021/01/29 07:19:31;;;;;;;8.73;4.37;;;9.60;99.90;;;;;;4858668;29;20443;-67
2021/01/29 07:22:09;;;;;;;4.43;2.80;;;9.50;99.90;;;;;;4900782;29;20424;-67
2021/01/29 07:28:15;;;;;;;4.37;3.30;;;9.60;99.90;;;;;;4900323;29;20419;-67
2021/01/29 07:31:11;;;;;;;4.27;3.87;;;9.70;99.90;;;;;;4900088;29;20983;-67
2021/01/29 07:33:55;;;;;;;5.03;4.50;;;9.80;99.90;;;;;;4900413;29;20508;-67
2021/01/29 07:36:23;;;;;;;5.53;4.37;;;9.90;99.90;;;;;;4900219;29;21034;-68
2021/01/29 07:39:07;;;;;;;6.83;5.00;;;10.00;99.90;;;;;;4900010;29;20429;-71
2021/01/29 07:42:05;;;;;;;6.60;6.00;;;10.00;99.90;;;;;;4900017;29;20432;-68
2021/01/29 07:44:38;;;;;;;7.10;6.00;;;10.10;99.90;;;;;;4900195;29;20496;-67
2021/01/29 07:47:30;;;;;;;9.93;5.23;;;10.00;99.90;;;;;;4900165;29;20421;-66
2021/01/29 07:50:14;;;;;;;9.17;6.03;;;10.00;99.90;;;;;;4900029;29;20484;-67
2021/01/29 07:53:17;;;;;;;7.20;5.47;;;10.10;99.90;;;;;;4900033;29;20850;-66
2021/01/29 07:59:38;;;;;;;8.87;5.20;;;10.20;99.90;;;;;;4823763;29;20435;-67
2021/01/29 08:02:41;;;;;;;7.27;4.63;;;10.20;99.90;;;;;;4823713;29;20507;-66
2021/01/29 08:05:27;;;;;;;5.03;4.43;;;10.30;99.90;;;;;;4899409;29;20479;-67
2021/01/29 08:08:05;;;;;;;6.60;6.00;;;10.30;99.90;;;;;;4899268;29;20897;-66
2021/01/29 08:10:35;;;;;;;5.50;4.93;;;10.30;99.90;;;;;;4899717;29;20516;-67
2021/01/29 08:16:28;;;;;;;6.40;5.80;;;10.40;99.90;;;;;;4899444;29;20436;-67
2021/01/29 08:22:45;;;;;;;8.57;6.37;;;10.40;99.90;;;;;;4899208;29;20436;-66
2021/01/29 08:25:21;;;;;;;9.77;6.23;;;10.50;99.90;;;;;;4899413;29;20467;-68
2021/01/29 08:28:18;;;;;;;9.95;6.82;;;10.60;99.90;;;;;;4898664;29;20444;-73
2021/01/29 08:31:15;;;;;;;8.77;7.45;;;10.60;99.90;;;;;;4897688;29;20496;-74
2021/01/29 08:34:16;;;;;;;8.13;6.73;;;10.70;99.90;;;;;;4899294;29;20172;-72
2021/01/29 08:37:09;;;;;;;7.93;6.33;;;10.90;99.90;;;;;;4899324;29;20452;-72
2021/01/29 08:40:03;;;;;;;7.30;5.90;;;10.80;99.90;;;;;;4898903;29;20417;-72
2021/01/29 08:42:47;;;;;;;6.57;5.87;;;10.90;99.90;;;;;;4888661;29;20432;-74
2021/01/29 08:45:23;;;;;;;8.23;6.80;;;11.00;99.90;;;;;;4898737;29;20464;-76
2021/01/29 08:48:10;;;;;;;9.00;7.80;;;10.90;99.90;;;;;;4897624;29;21002;-72
2021/01/29 08:54:19;;;;;;;10.43;6.20;;;10.80;99.90;;;;;;4898773;29;20967;-73
2021/01/29 08:57:06;;;;;;;6.00;5.40;;;10.80;99.90;;;;;;4898618;29;20988;-75
2021/01/29 08:59:34;;;;;;;6.10;5.50;;;10.80;99.90;;;;;;4898511;29;20487;-81
2021/01/29 09:02:30;;;;;;;6.33;5.67;;;10.80;99.90;;;;;;4898919;29;20436;-78
2021/01/29 09:05:19;;;;;;;6.00;4.13;;;10.70;99.90;;;;;;4898779;29;20854;-78
2021/01/29 09:07:45;;;;;;;4.77;4.40;;;10.70;99.90;;;;;;4898614;29;20409;-77
2021/01/29 09:10:17;;;;;;;4.80;4.30;;;10.60;99.90;;;;;;4898395;29;20447;-72
2021/01/29 09:12:44;;;;;;;5.57;4.90;;;10.70;99.90;;;;;;4898363;29;20428;-71
2021/01/29 09:15:21;;;;;;;5.23;4.70;;;10.70;99.90;;;;;;4898166;29;20480;-71
2021/01/29 09:18:02;;;;;;;12.53;6.17;;;10.60;99.90;;;;;;4898686;29;20503;-72
2021/01/29 09:20:42;;;;;;;8.27;4.93;;;10.40;99.90;;;;;;4898600;29;20431;-72
2021/01/29 09:23:28;;;;;;;16.43;5.57;;;10.50;99.90;;;;;;4898586;29;20463;-72
2021/01/29 09:26:02;;;;;;;6.77;5.20;;;10.40;99.90;;;;;;4898266;29;20468;-71
2021/01/29 09:28:32;;;;;;;8.40;5.37;;;10.30;99.90;;;;;;4898241;29;20905;-70
2021/01/29 09:34:26;;;;;;;9.90;6.57;;;10.30;99.90;;;;;;4898219;29;20506;-73
2021/01/29 09:36:55;;;;;;;12.43;6.40;;;10.40;99.90;;;;;;4898073;29;20421;-73
2021/01/29 09:39:34;;;;;;;12.13;4.40;;;10.50;99.90;;;;;;4898156;29;20512;-71
2021/01/29 09:42:12;;;;;;;10.90;5.23;;;10.40;99.90;;;;;;4898482;29;20417;-71
2021/01/29 09:44:57;;;;;;;11.67;4.60;;;10.40;99.90;;;;;;4902189;29;20425;-72
2021/01/29 09:47:24;;;;;;;13.30;5.20;;;10.40;99.90;;;;;;4902288;29;20417;-72
2021/01/29 09:50:00;;;;;;;10.33;4.20;;;10.30;99.90;;;;;;4902059;29;20432;-72
2021/01/29 09:52:52;;;;;;;9.60;4.93;;;10.40;99.90;;;;;;4902259;29;20910;-72
2021/01/29 09:55:29;;;;;;;9.77;4.10;;;10.40;99.90;;;;;;4901982;29;20467;-72
2021/01/29 10:01:22;;;;;;;7.90;4.10;;;10.40;99.90;;;;;;4901900;29;20457;-72
2021/01/29 10:04:01;;;;;;;7.97;4.60;;;10.40;99.90;;;;;;4902119;29;20459;-73
2021/01/29 10:06:31;;;;;;;10.13;4.10;;;10.20;99.90;;;;;;4901650;29;20474;-72
2021/01/29 10:09:01;;;;;;;10.50;3.97;;;10.10;99.90;;;;;;4901501;29;21010;-72
2021/01/29 10:11:45;;;;;;;5.90;4.10;;;10.10;99.90;;;;;;4902185;29;20873;-71
2021/01/29 10:14:26;;;;;;;10.53;4.50;;;10.10;99.90;;;;;;4901953;29;20420;-73
2021/01/29 10:16:53;;;;;;;14.77;5.33;;;10.20;99.90;;;;;;4901590;29;20512;-70
2021/01/29 10:19:41;;;;;;;18.47;5.80;;;10.20;99.90;;;;;;4901745;29;20436;-71
2021/01/29 10:22:27;;;;;;;6.87;5.30;;;10.10;99.90;;;;;;4901426;29;20425;-71
2021/01/29 10:24:59;;;;;;;17.63;7.73;;;10.20;99.90;;;;;;4901390;29;20476;-69
2021/01/29 10:27:38;;;;;;;13.60;6.07;;;10.10;99.90;;;;;;4901562;29;20476;-70
2021/01/29 10:30:12;;;;;;;15.20;5.37;;;10.20;99.90;;;;;;4901658;29;20444;-67
2021/01/29 10:32:38;;;;;;;12.57;5.27;;;10.20;99.90;;;;;;4901262;29;20941;-69
2021/01/29 10:35:15;;;;;;;10.67;4.93;;;10.30;99.90;;;;;;4901516;29;20429;-70
2021/01/29 10:38:05;;;;;;;22.03;6.30;;;10.20;99.90;;;;;;4900108;29;20433;-76
2021/01/29 10:40:38;;;;;;;15.13;5.73;;;10.40;99.90;;;;;;4901430;29;20465;-74
2021/01/29 10:43:30;;;;;;;12.67;6.50;;;10.60;99.90;;;;;;4901042;29;20917;-73
2021/01/29 10:46:28;;;;;;;14.70;5.37;;;10.70;99.90;;;;;;4901287;29;20464;-73
2021/01/29 10:49:00;;;;;;;9.33;6.33;;;10.80;99.90;;;;;;4899761;29;20425;-74
2021/01/29 10:51:45;;;;;;;10.10;6.73;;;10.80;99.90;;;;;;4901216;29;20781;-74
2021/01/29 10:54:12;;;;;;;20.90;7.23;;;10.90;99.90;;;;;;4900437;29;20451;-70
2021/01/29 10:56:43;;;;;;;11.47;6.50;;;10.80;99.90;;;;;;4900867;29;20448;-73
2021/01/29 11:00:14;;;;;;;13.73;7.63;;;10.80;99.90;;;;;;4900835;29;20480;-72
2021/01/29 11:02:44;;;;;;;18.47;8.03;;;10.90;99.90;;;;;;4870536;29;20443;-73
2021/01/29 11:05:13;;;;;;;18.33;7.93;;;10.80;99.90;;;;;;4900913;29;21016;-72
2021/01/29 11:07:42;;;;;;;22.97;9.37;;;10.90;99.90;;;;;;4900669;29;20433;-72
2021/01/29 11:10:19;;;;;;;14.80;7.80;;;10.80;99.90;;;;;;4900863;29;20429;-73
2021/01/29 11:12:56;;;;;;;18.27;7.23;;;10.90;99.90;;;;;;4900615;29;20993;-74
2021/01/29 11:15:37;;;;;;;17.30;7.57;;;10.90;99.90;;;;;;4900540;29;20427;-76
2021/01/29 11:18:17;;;;;;;20.07;8.23;;;10.90;99.90;;;;;;4900503;29;20460;-75
2021/01/29 11:20:43;;;;;;;19.97;8.17;;;10.90;99.90;;;;;;4900735;29;20464;-75
2021/01/29 11:23:38;;;;;;;21.00;6.60;;;10.90;99.90;;;;;;4900634;29;20452;-73
2021/01/29 11:26:10;;;;;;;25.43;8.70;;;10.90;99.90;;;;;;4900286;29;20214;-70
2021/01/29 11:32:22;;;;;;;21.50;6.83;;;10.80;99.90;;;;;;4900594;29;20779;-72
2021/01/29 11:34:55;;;;;;;17.10;6.70;;;10.70;99.90;;;;;;4900080;29;20425;-70
2021/01/29 11:37:35;;;;;;;17.90;7.27;;;10.70;99.90;;;;;;4900776;29;20465;-70
2021/01/29 11:40:23;;;;;;;19.40;7.03;;;10.70;99.90;;;;;;4900287;29;20413;-71
2021/01/29 11:43:00;;;;;;;20.03;7.47;;;10.80;99.90;;;;;;4900390;29;20440;-71
2021/01/29 11:45:34;;;;;;;31.83;8.00;;;10.70;99.90;;;;;;4899810;29;20468;-71
2021/01/29 11:48:21;;;;;;;22.53;6.70;;;10.70;99.90;;;;;;4900135;29;20777;-70
2021/01/29 11:51:17;;;;;;;21.40;8.27;;;10.70;99.90;;;;;;4899824;29;20417;-70
2021/01/29 11:54:06;;;;;;;34.67;7.37;;;10.60;99.90;;;;;;4899696;29;20463;-70
2021/01/29 11:56:54;;;;;;;20.70;7.23;;;10.70;99.90;;;;;;4898573;29;20433;-77
2021/01/29 11:59:58;;;;;;;20.33;6.93;;;10.60;99.90;;;;;;4899991;29;20503;-80
2021/01/29 12:02:47;;;;;;;27.77;7.40;;;10.70;99.90;;;;;;4899609;29;20939;-77
2021/01/29 12:05:24;;;;;;;15.67;6.53;;;10.70;99.90;;;;;;4898631;29;20504;-77
2021/01/29 12:08:17;;;;;;;23.43;8.20;;;10.80;99.90;;;;;;4899306;29;20421;-77
2021/01/29 12:10:55;;;;;;;19.27;6.60;;;10.80;99.90;;;;;;4899763;29;20517;-77
2021/01/29 12:13:32;;;;;;;26.80;7.27;;;10.80;99.90;;;;;;4899528;29;20444;-77
2021/01/29 12:16:02;;;;;;;16.47;6.90;;;10.80;99.90;;;;;;4899310;29;20905;-77
2021/01/29 12:22:13;;;;;;;11.73;5.93;;;10.90;99.90;;;;;;4899454;29;20416;-76
2021/01/29 12:25:02;;;;;;;16.80;7.30;;;11.00;99.90;;;;;;4899408;29;20420;-77
2021/01/29 12:27:41;;;;;;;23.17;7.67;;;11.10;99.90;;;;;;4899507;29;20457;-77
2021/01/29 12:30:18;;;;;;;26.53;6.80;;;11.10;99.90;;;;;;4899143;29;20413;-76
2021/01/29 12:33:30;;;;;;;19.90;6.33;;;11.30;99.90;;;;;;4899193;29;20470;-77
2021/01/29 12:36:08;;;;;;;15.90;5.87;;;11.20;99.90;;;;;;4886838;29;20445;-76
2021/01/29 12:38:55;;;;;;;24.27;6.10;;;11.20;99.90;;;;;;4899276;29;20507;-76
2021/01/29 12:41:39;;;;;;;13.00;4.87;;;11.20;99.90;;;;;;4897775;29;20968;-76
2021/01/29 12:44:36;;;;;;;24.20;6.80;;;11.30;99.90;;;;;;4899267;29;20423;-76
2021/01/29 12:47:26;;;;;;;17.30;5.93;;;11.20;99.90;;;;;;4899214;29;20572;-76
2021/01/29 12:50:06;;;;;;;19.90;6.33;;;11.20;99.90;;;;;;4899177;29;20538;-76
2021/01/29 12:52:55;;;;;;;19.00;5.70;;;11.00;99.90;;;;;;4898781;29;20496;-76
2021/01/29 12:58:53;;;;;;;16.40;5.60;;;10.90;99.90;;;;;;4898654;29;20468;-71
2021/01/29 13:01:47;;;;;;;17.50;5.30;;;10.70;99.90;;;;;;4899006;29;20435;-71
2021/01/29 13:05:00;;;;;;;20.43;7.27;;;10.60;99.90;;;;;;4898473;29;20427;-71
2021/01/29 13:07:30;;;;;;;16.10;6.87;;;10.50;99.90;;;;;;4886116;29;20493;-71
2021/01/29 13:10:27;;;;;;;21.40;6.80;;;10.40;99.90;;;;;;4898256;29;20846;-70
2021/01/29 13:16:37;;;;;;;27.03;9.77;;;10.50;99.90;;;;;;4898284;29;20548;-71
2021/01/29 13:19:05;;;;;;;20.27;8.57;;;10.40;99.90;;;;;;4898412;29;20433;-71
2021/01/29 13:21:52;;;;;;;17.40;8.50;;;10.40;99.90;;;;;;4898555;29;20495;-71
2021/01/29 13:24:33;;;;;;;28.83;10.77;;;10.50;99.90;;;;;;4898746;29;20508;-71
2021/01/29 13:27:04;;;;;;;24.97;9.10;;;10.40;99.90;;;;;;4898562;29;20570;-71
2021/01/29 13:29:34;;;;;;;26.33;9.90;;;10.40;99.90;;;;;;4898328;29;20405;-72
2021/01/29 13:35:49;;;;;;;20.70;10.03;;;10.30;99.90;;;;;;4898294;29;20420;-71
2021/01/29 13:38:31;;;;;;;29.37;9.37;;;10.40;99.90;;;;;;4889237;29;20441;-71
2021/01/29 13:41:35;;;;;;;34.17;10.50;;;10.40;99.90;;;;;;4898356;29;20500;-71
2021/01/29 13:47:40;;;;;;;20.30;8.90;;;10.50;99.90;;;;;;4898116;29;21004;-71
2021/01/29 13:53:27;;;;;;;13.23;7.90;;;10.30;99.90;;;;;;4898242;29;20457;-71
2021/01/29 13:55:59;;;;;;;25.30;8.60;;;10.30;99.90;;;;;;4898761;29;20924;-71
2021/01/29 13:58:32;;;;;;;25.90;9.53;;;10.30;99.90;;;;;;4898528;29;20581;-72
2021/01/29 14:01:17;;;;;;;21.90;9.00;;;10.30;99.90;;;;;;4898556;29;20440;-73
2021/01/29 14:03:47;;;;;;;21.73;9.40;;;10.40;99.90;;;;;;4898084;29;20819;-74
2021/01/29 14:06:14;;;;;;;21.47;9.50;;;10.40;99.90;;;;;;4898386;29;20468;-70
2021/01/29 14:08:40;;;;;;;18.70;9.20;;;10.30;99.90;;;;;;4897831;29;20504;-69
2021/01/29 14:11:21;;;;;;;19.37;8.23;;;10.40;99.90;;;;;;4898746;29;20489;-68
2021/01/29 14:17:24;;;;;;;19.77;7.33;;;10.30;99.90;;;;;;4898352;29;20409;-70
2021/01/29 14:20:17;;;;;;;19.33;8.20;;;10.40;99.90;;;;;;4898694;29;20428;-70
2021/01/29 14:22:48;;;;;;;17.43;7.03;;;10.40;99.90;;;;;;4898352;29;21052;-70
2021/01/29 14:25:39;;;;;;;12.30;6.47;;;10.50;99.90;;;;;;4898763;29;20514;-68
2021/01/29 14:31:35;;;;;;;10.77;4.80;;;10.60;99.90;;;;;;4902947;29;20543;-70
2021/01/29 14:34:34;;;;;;;18.60;5.63;;;10.50;99.90;;;;;;4901368;29;20512;-71
2021/01/29 14:37:12;;;;;;;14.10;5.17;;;10.50;99.90;;;;;;4901910;29;20421;-73
2021/01/29 14:40:04;;;;;;;8.70;4.20;;;10.40;99.90;;;;;;4902166;29;20791;-74
2021/01/29 14:42:51;;;;;;;7.60;4.10;;;10.40;99.90;;;;;;4900962;29;20959;-73
2021/01/29 14:45:51;;;;;;;6.27;3.57;;;10.40;99.90;;;;;;4902451;29;20503;-70
2021/01/29 14:48:29;;;;;;;12.33;3.70;;;10.40;99.90;;;;;;4901745;29;20480;-70
2021/01/29 14:54:22;;;;;;;12.57;5.40;;;10.50;99.90;;;;;;4901878;29;20501;-73
2021/01/29 15:00:26;;;;;;;11.13;4.53;;;10.40;99.90;;;;;;4902258;29;20465;-74
2021/01/29 15:03:01;;;;;;;6.00;3.73;;;10.40;99.90;;;;;;4907336;29;20419;-74
2021/01/29 15:05:41;;;;;;;12.83;5.10;;;10.40;99.90;;;;;;4908731;29;20459;-74
2021/01/29 15:08:22;;;;;;;10.73;4.83;;;10.40;99.90;;;;;;4901667;29;20892;-75
2021/01/29 15:11:02;;;;;;;24.70;5.37;;;10.30;99.90;;;;;;4901189;29;20428;-75
2021/01/29 15:13:46;;;;;;;16.20;4.43;;;10.30;99.90;;;;;;4901507;29;20813;-75
2021/01/29 15:16:39;;;;;;;14.10;4.73;;;10.30;99.90;;;;;;4901699;29;20457;-74
2021/01/29 15:22:26;;;;;;;16.00;4.33;;;10.20;99.90;;;;;;4900663;29;20416;-72
2021/01/29 15:28:28;;;;;;;10.87;5.33;;;10.40;99.90;;;;;;4900269;29;20176;-70
2021/01/29 15:34:54;;;;;;;12.33;5.40;;;10.40;99.90;;;;;;4900339;29;20464;-75
2021/01/29 15:37:53;;;;;;;8.70;3.13;;;10.30;99.90;;;;;;4900480;29;20506;-75
2021/01/29 15:40:30;;;;;;;12.73;4.43;;;10.30;99.90;;;;;;4900339;29;20466;-75
2021/01/29 15:43:11;;;;;;;12.17;4.63;;;10.40;99.90;;;;;;4900436;29;20459;-75
2021/01/29 15:49:04;;;;;;;11.13;4.00;;;10.30;99.90;;;;;;4899784;29;20415;-74
2021/01/29 15:51:57;;;;;;;9.30;4.17;;;10.40;99.90;;;;;;4901000;29;20417;-75
2021/01/29 15:54:23;;;;;;;8.20;3.60;;;10.50;99.90;;;;;;4899885;29;20417;-75
2021/01/29 15:56:57;;;;;;;12.33;5.40;;;10.40;99.90;;;;;;4900259;29;20420;-75
2021/01/29 15:59:41;;;;;;;14.27;5.10;;;10.40;99.90;;;;;;4899926;29;20234;-75
2021/01/29 16:02:09;;;;;;;12.73;4.67;;;10.30;99.90;;;;;;4900140;29;20425;-75
2021/01/29 16:04:41;;;;;;;13.20;4.53;;;10.20;99.90;;;;;;4900755;29;20449;-75
2021/01/29 16:07:13;;;;;;;14.90;4.83;;;10.20;99.90;;;;;;4900071;29;20476;-75
2021/01/29 16:09:56;;;;;;;16.40;5.50;;;10.20;99.90;;;;;;4900596;29;20472;-76
2021/01/29 16:13:01;;;;;;;14.20;3.80;;;10.30;99.90;;;;;;4900041;29;20492;-76
2021/01/29 16:15:29;;;;;;;20.77;5.43;;;10.30;99.90;;;;;;4900162;29;20834;-76
2021/01/29 16:18:02;;;;;;;11.13;4.90;;;10.30;99.90;;;;;;4900017;29;20428;-75
2021/01/29 16:20:42;;;;;;;12.97;3.77;;;10.40;99.90;;;;;;4899847;29;20473;-76
2021/01/29 16:23:23;;;;;;;18.90;3.90;;;10.30;99.90;;;;;;4899853;29;20425;-75
2021/01/29 16:26:14;;;;;;;13.83;4.37;;;10.20;99.90;;;;;;4899956;29;20456;-75
2021/01/29 16:28:43;;;;;;;6.53;3.63;;;10.20;99.90;;;;;;4899699;29;20425;-76
2021/01/29 16:31:34;;;;;;;10.67;3.87;;;10.20;99.90;;;;;;4899986;29;20517;-75
2021/01/29 16:34:03;;;;;;;16.17;4.32;;;10.20;99.90;;;;;;4897570;29;20441;-75
2021/01/29 16:36:29;;;;;;;16.43;5.07;;;10.20;99.90;;;;;;4899066;29;20255;-75
2021/01/29 16:42:23;;;;;;;13.50;3.90;;;10.30;99.90;;;;;;4899241;29;20504;-75
2021/01/29 16:45:07;;;;;;;7.53;3.33;;;10.30;99.90;;;;;;4899624;29;20425;-75
2021/01/29 16:47:42;;;;;;;10.93;3.90;;;10.20;99.90;;;;;;4899113;29;20440;-75
2021/01/29 16:50:13;;;;;;;15.63;3.30;;;10.20;99.90;;;;;;4899255;29;20770;-75
2021/01/29 16:52:43;;;;;;;15.13;4.47;;;10.10;99.90;;;;;;4898387;29;20465;-75
2021/01/29 16:55:19;;;;;;;17.17;4.80;;;10.20;99.90;;;;;;4899059;29;20893;-75
2021/01/29 16:57:48;;;;;;;11.93;5.00;;;10.30;99.90;;;;;;4899085;29;20431;-75
2021/01/29 17:00:16;;;;;;;13.70;4.50;;;10.30;99.90;;;;;;4898963;29;20513;-73
2021/01/29 17:02:46;;;;;;;17.13;5.50;;;10.30;99.90;;;;;;4898571;29;20432;-73
2021/01/29 17:05:13;;;;;;;14.10;4.37;;;10.20;99.90;;;;;;4898487;29;20544;-73
2021/01/29 17:07:44;;;;;;;16.63;5.10;;;10.30;99.90;;;;;;4898867;29;20532;-73
2021/01/29 17:10:37;;;;;;;19.23;5.67;;;10.30;99.90;;;;;;4898636;29;20981;-76
2021/01/29 17:16:27;;;;;;;16.23;5.30;;;10.30;99.90;;;;;;4898694;29;20949;-75
2021/01/29 17:19:00;;;;;;;15.50;4.30;;;10.10;99.90;;;;;;4900795;29;20441;-76
2021/01/29 17:21:34;;;;;;;11.67;4.40;;;10.00;99.90;;;;;;4899077;29;20424;-79
2021/01/29 17:24:14;;;;;;;9.90;4.13;;;10.00;99.90;;;;;;4899049;29;20428;-72
2021/01/29 17:26:47;;;;;;;16.50;4.60;;;10.00;99.90;;;;;;4898504;29;20468;-75
2021/01/29 17:29:18;;;;;;;17.13;4.50;;;10.00;99.90;;;;;;4898260;29;20404;-72
2021/01/29 17:31:44;;;;;;;16.17;4.87;;;10.00;99.90;;;;;;4898630;29;20425;-71
2021/01/29 17:34:32;;;;;;;7.43;4.23;;;10.00;99.90;;;;;;4898435;29;20443;-72
2021/01/29 17:37:07;;;;;;;9.33;4.80;;;10.00;99.90;;;;;;4898094;29;20437;-72
2021/01/29 17:42:56;;;;;;;14.97;5.77;;;10.10;99.90;;;;;;4898122;29;20423;-72
2021/01/29 17:45:34;;;;;;;19.60;6.93;;;9.90;99.90;;;;;;4898205;29;20472;-75
2021/01/29 17:48:23;;;;;;;27.67;6.67;;;9.90;99.90;;;;;;4897384;29;20940;-76
2021/01/29 17:50:51;;;;;;;21.50;5.47;;;9.90;99.90;;;;;;4898056;29;20436;-73
2021/01/29 17:53:41;;;;;;;14.90;5.40;;;9.80;99.90;;;;;;4897860;29;20427;-73
2021/01/29 17:56:35;;;;;;;10.50;5.10;;;9.70;99.90;;;;;;4898253;29;20764;-73
2021/01/29 18:02:22;;;;;;;16.07;4.67;;;9.80;99.90;;;;;;4897518;29;20452;-72
2021/01/29 18:04:55;;;;;;;16.07;5.00;;;9.90;99.90;;;;;;4900562;29;20920;-72
2021/01/29 18:07:21;;;;;;;12.60;5.93;;;9.80;99.90;;;;;;4901968;29;20185;-72
2021/01/29 18:10:05;;;;;;;11.80;4.87;;;9.90;99.90;;;;;;4901373;29;20589;-71
2021/01/29 18:12:40;;;;;;;15.37;5.77;;;9.90;99.90;;;;;;4901823;29;20792;-70
2021/01/29 18:18:35;;;;;;;15.90;5.80;;;9.80;99.90;;;;;;4901469;29;20415;-71
2021/01/29 18:21:06;;;;;;;17.10;5.77;;;9.70;99.90;;;;;;4902091;29;20644;-72
2021/01/29 18:26:54;;;;;;;17.33;7.20;;;9.80;99.90;;;;;;4901296;29;20986;-71
2021/01/29 18:32:42;;;;;;;17.40;6.23;;;9.70;99.90;;;;;;4901307;29;20415;-71
2021/01/29 18:35:08;;;;;;;17.00;7.63;;;9.70;99.90;;;;;;4901404;29;20432;-71
2021/01/29 18:37:34;;;;;;;19.50;8.60;;;9.70;99.90;;;;;;4901427;29;20437;-72
2021/01/29 18:40:00;;;;;;;24.60;9.30;;;9.70;99.90;;;;;;4901110;29;20176;-78
2021/01/29 18:42:25;;;;;;;22.43;8.93;;;9.70;99.90;;;;;;4901571;29;20188;-71
2021/01/29 18:44:54;;;;;;;16.50;9.07;;;9.70;99.90;;;;;;4901310;29;20916;-75
2021/01/29 18:50:44;;;;;;;30.50;8.93;;;9.70;99.90;;;;;;4901041;29;20473;-68
2021/01/29 18:53:11;;;;;;;24.77;11.23;;;9.70;99.90;;;;;;4901296;29;20429;-69
2021/01/29 18:55:37;;;;;;;20.10;10.00;;;9.80;99.90;;;;;;4901303;29;20428;-69
2021/01/29 18:58:03;;;;;;;26.10;9.97;;;9.70;99.90;;;;;;4901082;29;20484;-69
2021/01/29 19:00:29;;;;;;;19.63;10.30;;;9.70;99.90;;;;;;4900956;29;20425;-71
2021/01/29 19:02:54;;;;;;;17.80;9.83;;;9.70;99.90;;;;;;4900917;29;20192;-71
2021/01/29 19:05:23;;;;;;;21.43;10.00;;;9.60;99.90;;;;;;4900611;29;21039;-70
2021/01/29 19:11:18;;;;;;;26.73;11.37;;;9.60;99.90;;;;;;4891006;29;20564;-68
2021/01/29 19:17:05;;;;;;;18.17;10.40;;;9.70;99.90;;;;;;4900548;29;20421;-70
2021/01/29 19:22:54;;;;;;;15.73;9.80;;;9.70;99.90;;;;;;4903943;29;20663;-73
2021/01/29 19:25:22;;;;;;;18.23;10.60;;;9.80;99.90;;;;;;4904300;29;20483;-75
2021/01/29 19:27:56;;;;;;;26.60;11.17;;;9.80;99.90;;;;;;4906414;29;20444;-76
2021/01/29 19:30:24;;;;;;;17.97;9.57;;;9.80;99.90;;;;;;4902740;29;20417;-74
2021/01/29 19:32:51;;;;;;;23.67;11.43;;;9.90;99.90;;;;;;4900694;29;20440;-70
2021/01/29 19:35:19;;;;;;;18.37;10.13;;;9.90;99.90;;;;;;4900210;29;20992;-70
2021/01/29 19:37:46;;;;;;;29.63;11.10;;;9.90;99.90;;;;;;4900875;29;20754;-76
2021/01/29 19:40:13;;;;;;;26.97;10.60;;;9.80;99.90;;;;;;4900438;29;20433;-72